sensor_id;sensor_type;location;lat;lon;timestamp;P1;durP1;ratioP1;P2;durP2;ratioP2
10761;SDS011;5433;50.862;4.320;2023-05-29T00:02:21;8.88;;;6.50;;
10761;SDS011;5433;50.862;4.320;2023-05-29T00:04:47;9.82;;;7.10;;
10761;SDS011;5433;50.862;4.320;2023-05-29T00:07:13;9.63;;;6.10;;
10761;SDS011;5433;50.862;4.320;2023-05-29T00:09:39;13.05;;;7.20;;
10761;SDS011;5433;50.862;4.320;2023-05-29T00:12:05;12.40;;;7.20;;
10761;SDS011;5433;50.862;4.320;2023-05-29T00:14:31;13.02;;;6.68;;
10761;SDS011;5433;50.862;4.320;2023-05-29T00:16:57;14.45;;;7.07;;
10761;SDS011;5433;50.862;4.320;2023-05-29T00:19:23;12.50;;;7.32;;
10761;SDS011;5433;50.862;4.320;2023-05-29T00:21:50;11.07;;;7.20;;
10761;SDS011;5433;50.862;4.320;2023-05-29T00:24:16;12.07;;;7.30;;
10761;SDS011;5433;50.862;4.320;2023-05-29T00:26:42;12.82;;;6.97;;
10761;SDS011;5433;50.862;4.320;2023-05-29T00:29:08;11.52;;;7.18;;
10761;SDS011;5433;50.862;4.320;2023-05-29T00:31:34;14.13;;;7.10;;
10761;SDS011;5433;50.862;4.320;2023-05-29T00:34:01;11.68;;;6.72;;
10761;SDS011;5433;50.862;4.320;2023-05-29T00:36:27;12.90;;;6.82;;
10761;SDS011;5433;50.862;4.320;2023-05-29T00:38:54;15.23;;;7.15;;
10761;SDS011;5433;50.862;4.320;2023-05-29T00:41:20;12.18;;;6.53;;
10761;SDS011;5433;50.862;4.320;2023-05-29T00:43:46;12.20;;;7.00;;
10761;SDS011;5433;50.862;4.320;2023-05-29T00:46:13;11.63;;;6.60;;
10761;SDS011;5433;50.862;4.320;2023-05-29T00:48:40;14.65;;;6.18;;
10761;SDS011;5433;50.862;4.320;2023-05-29T00:51:06;11.45;;;7.05;;
10761;SDS011;5433;50.862;4.320;2023-05-29T00:53:32;12.45;;;6.07;;
10761;SDS011;5433;50.862;4.320;2023-05-29T00:55:58;10.98;;;7.05;;
10761;SDS011;5433;50.862;4.320;2023-05-29T00:58:25;11.88;;;6.78;;
10761;SDS011;5433;50.862;4.320;2023-05-29T01:00:51;11.73;;;6.82;;
10761;SDS011;5433;50.862;4.320;2023-05-29T01:03:18;14.23;;;6.78;;
10761;SDS011;5433;50.862;4.320;2023-05-29T01:05:48;12.63;;;6.82;;
10761;SDS011;5433;50.862;4.320;2023-05-29T01:08:14;10.75;;;6.60;;
10761;SDS011;5433;50.862;4.320;2023-05-29T01:10:40;12.32;;;6.35;;
10761;SDS011;5433;50.862;4.320;2023-05-29T01:15:58;8.73;;;5.38;;
10761;SDS011;5433;50.862;4.320;2023-05-29T01:23:51;9.60;;;4.90;;
10761;SDS011;5433;50.862;4.320;2023-05-29T01:29:17;10.45;;;6.40;;
10761;SDS011;5433;50.862;4.320;2023-05-29T01:31:44;11.98;;;6.75;;
10761;SDS011;5433;50.862;4.320;2023-05-29T01:34:11;10.32;;;6.22;;
10761;SDS011;5433;50.862;4.320;2023-05-29T01:36:37;10.23;;;6.63;;
10761;SDS011;5433;50.862;4.320;2023-05-29T01:39:03;8.88;;;5.32;;
10761;SDS011;5433;50.862;4.320;2023-05-29T01:41:30;9.45;;;6.03;;
10761;SDS011;5433;50.862;4.320;2023-05-29T01:43:57;10.45;;;6.50;;
10761;SDS011;5433;50.862;4.320;2023-05-29T01:46:24;9.95;;;5.55;;
10761;SDS011;5433;50.862;4.320;2023-05-29T01:48:50;10.13;;;6.13;;
10761;SDS011;5433;50.862;4.320;2023-05-29T01:51:16;11.73;;;6.75;;
10761;SDS011;5433;50.862;4.320;2023-05-29T01:53:43;13.07;;;6.45;;
10761;SDS011;5433;50.862;4.320;2023-05-29T01:56:09;9.13;;;5.40;;
10761;SDS011;5433;50.862;4.320;2023-05-29T01:58:38;11.73;;;6.20;;
10761;SDS011;5433;50.862;4.320;2023-05-29T02:01:06;8.23;;;4.68;;
10761;SDS011;5433;50.862;4.320;2023-05-29T02:03:32;11.50;;;7.07;;
10761;SDS011;5433;50.862;4.320;2023-05-29T02:05:59;12.13;;;6.15;;
10761;SDS011;5433;50.862;4.320;2023-05-29T02:08:25;11.35;;;6.43;;
10761;SDS011;5433;50.862;4.320;2023-05-29T02:10:51;12.73;;;7.03;;
10761;SDS011;5433;50.862;4.320;2023-05-29T02:13:17;11.73;;;6.05;;
10761;SDS011;5433;50.862;4.320;2023-05-29T02:15:43;12.23;;;6.55;;
10761;SDS011;5433;50.862;4.320;2023-05-29T02:18:10;13.23;;;6.63;;
10761;SDS011;5433;50.862;4.320;2023-05-29T02:20:40;13.35;;;6.40;;
10761;SDS011;5433;50.862;4.320;2023-05-29T02:23:07;8.00;;;5.15;;
10761;SDS011;5433;50.862;4.320;2023-05-29T02:25:33;11.05;;;5.57;;
10761;SDS011;5433;50.862;4.320;2023-05-29T02:28:00;13.25;;;5.78;;
10761;SDS011;5433;50.862;4.320;2023-05-29T02:30:27;10.10;;;5.38;;
10761;SDS011;5433;50.862;4.320;2023-05-29T02:32:53;9.13;;;5.13;;
10761;SDS011;5433;50.862;4.320;2023-05-29T02:35:19;12.43;;;4.22;;
10761;SDS011;5433;50.862;4.320;2023-05-29T02:37:47;9.82;;;5.00;;
10761;SDS011;5433;50.862;4.320;2023-05-29T02:40:13;8.98;;;5.20;;
10761;SDS011;5433;50.862;4.320;2023-05-29T02:42:39;10.30;;;4.75;;
10761;SDS011;5433;50.862;4.320;2023-05-29T02:45:05;11.38;;;4.60;;
10761;SDS011;5433;50.862;4.320;2023-05-29T02:47:31;9.65;;;4.55;;
10761;SDS011;5433;50.862;4.320;2023-05-29T02:50:00;10.55;;;5.10;;
10761;SDS011;5433;50.862;4.320;2023-05-29T02:52:26;11.27;;;5.07;;
10761;SDS011;5433;50.862;4.320;2023-05-29T02:54:53;10.85;;;5.43;;
10761;SDS011;5433;50.862;4.320;2023-05-29T02:57:22;10.35;;;4.35;;
10761;SDS011;5433;50.862;4.320;2023-05-29T02:59:49;10.50;;;4.25;;
10761;SDS011;5433;50.862;4.320;2023-05-29T03:02:15;10.18;;;4.55;;
10761;SDS011;5433;50.862;4.320;2023-05-29T03:04:41;12.95;;;4.10;;
10761;SDS011;5433;50.862;4.320;2023-05-29T03:07:07;8.63;;;3.70;;
10761;SDS011;5433;50.862;4.320;2023-05-29T03:09:34;7.88;;;3.40;;
10761;SDS011;5433;50.862;4.320;2023-05-29T03:12:00;10.50;;;3.72;;
10761;SDS011;5433;50.862;4.320;2023-05-29T03:14:26;9.45;;;3.97;;
10761;SDS011;5433;50.862;4.320;2023-05-29T03:16:53;8.27;;;3.72;;
10761;SDS011;5433;50.862;4.320;2023-05-29T03:19:19;10.90;;;3.65;;
10761;SDS011;5433;50.862;4.320;2023-05-29T03:21:45;9.73;;;3.40;;
10761;SDS011;5433;50.862;4.320;2023-05-29T03:24:11;9.30;;;3.00;;
10761;SDS011;5433;50.862;4.320;2023-05-29T03:26:41;9.10;;;3.30;;
10761;SDS011;5433;50.862;4.320;2023-05-29T03:29:07;9.40;;;3.58;;
10761;SDS011;5433;50.862;4.320;2023-05-29T03:31:33;10.95;;;3.50;;
10761;SDS011;5433;50.862;4.320;2023-05-29T03:34:00;12.10;;;3.58;;
10761;SDS011;5433;50.862;4.320;2023-05-29T03:36:26;8.55;;;2.80;;
10761;SDS011;5433;50.862;4.320;2023-05-29T03:38:52;7.82;;;2.97;;
10761;SDS011;5433;50.862;4.320;2023-05-29T03:41:18;8.50;;;3.13;;
10761;SDS011;5433;50.862;4.320;2023-05-29T03:43:44;11.70;;;3.30;;
10761;SDS011;5433;50.862;4.320;2023-05-29T03:46:10;8.32;;;3.20;;
10761;SDS011;5433;50.862;4.320;2023-05-29T03:48:36;11.65;;;3.30;;
10761;SDS011;5433;50.862;4.320;2023-05-29T03:51:02;8.82;;;3.00;;
10761;SDS011;5433;50.862;4.320;2023-05-29T03:53:28;12.45;;;2.97;;
10761;SDS011;5433;50.862;4.320;2023-05-29T03:55:54;9.40;;;3.17;;
10761;SDS011;5433;50.862;4.320;2023-05-29T03:58:20;10.07;;;2.90;;
10761;SDS011;5433;50.862;4.320;2023-05-29T04:00:46;7.35;;;3.10;;
10761;SDS011;5433;50.862;4.320;2023-05-29T04:03:12;9.98;;;2.97;;
10761;SDS011;5433;50.862;4.320;2023-05-29T04:05:38;9.35;;;3.03;;
10761;SDS011;5433;50.862;4.320;2023-05-29T04:08:04;6.25;;;1.92;;
10761;SDS011;5433;50.862;4.320;2023-05-29T04:10:30;7.43;;;2.45;;
10761;SDS011;5433;50.862;4.320;2023-05-29T04:12:59;9.52;;;3.05;;
10761;SDS011;5433;50.862;4.320;2023-05-29T04:15:26;10.85;;;2.72;;
10761;SDS011;5433;50.862;4.320;2023-05-29T04:17:53;9.95;;;2.75;;
10761;SDS011;5433;50.862;4.320;2023-05-29T04:20:20;8.98;;;2.72;;
10761;SDS011;5433;50.862;4.320;2023-05-29T04:22:46;7.15;;;2.47;;
10761;SDS011;5433;50.862;4.320;2023-05-29T04:25:12;10.90;;;2.38;;
10761;SDS011;5433;50.862;4.320;2023-05-29T04:27:38;6.90;;;2.42;;
10761;SDS011;5433;50.862;4.320;2023-05-29T04:30:05;8.57;;;2.58;;
10761;SDS011;5433;50.862;4.320;2023-05-29T04:32:32;8.88;;;2.60;;
10761;SDS011;5433;50.862;4.320;2023-05-29T04:35:01;8.23;;;2.60;;
10761;SDS011;5433;50.862;4.320;2023-05-29T04:37:27;9.65;;;2.60;;
10761;SDS011;5433;50.862;4.320;2023-05-29T04:39:54;8.15;;;2.17;;
10761;SDS011;5433;50.862;4.320;2023-05-29T04:42:21;6.93;;;2.65;;
10761;SDS011;5433;50.862;4.320;2023-05-29T04:44:47;10.85;;;2.55;;
10761;SDS011;5433;50.862;4.320;2023-05-29T04:47:14;9.38;;;2.80;;
10761;SDS011;5433;50.862;4.320;2023-05-29T04:49:41;9.77;;;2.80;;
10761;SDS011;5433;50.862;4.320;2023-05-29T04:52:07;6.95;;;2.53;;
10761;SDS011;5433;50.862;4.320;2023-05-29T04:54:34;10.80;;;2.92;;
10761;SDS011;5433;50.862;4.320;2023-05-29T04:57:00;10.98;;;2.53;;
10761;SDS011;5433;50.862;4.320;2023-05-29T04:59:26;9.80;;;2.78;;
10761;SDS011;5433;50.862;4.320;2023-05-29T05:01:52;6.85;;;2.72;;
10761;SDS011;5433;50.862;4.320;2023-05-29T05:04:18;5.85;;;1.80;;
10761;SDS011;5433;50.862;4.320;2023-05-29T05:06:45;6.43;;;1.95;;
10761;SDS011;5433;50.862;4.320;2023-05-29T05:09:11;7.43;;;1.80;;
10761;SDS011;5433;50.862;4.320;2023-05-29T05:11:38;11.02;;;2.80;;
10761;SDS011;5433;50.862;4.320;2023-05-29T05:14:04;7.35;;;2.38;;
10761;SDS011;5433;50.862;4.320;2023-05-29T05:16:30;7.75;;;2.08;;
10761;SDS011;5433;50.862;4.320;2023-05-29T05:18:58;10.10;;;2.30;;
10761;SDS011;5433;50.862;4.320;2023-05-29T05:21:24;10.65;;;2.50;;
10761;SDS011;5433;50.862;4.320;2023-05-29T05:23:50;8.27;;;2.50;;
10761;SDS011;5433;50.862;4.320;2023-05-29T05:26:16;6.05;;;2.30;;
10761;SDS011;5433;50.862;4.320;2023-05-29T05:28:42;8.90;;;2.72;;
10761;SDS011;5433;50.862;4.320;2023-05-29T05:31:08;9.15;;;2.35;;
10761;SDS011;5433;50.862;4.320;2023-05-29T05:33:34;6.57;;;2.28;;
10761;SDS011;5433;50.862;4.320;2023-05-29T05:36:00;10.07;;;2.88;;
10761;SDS011;5433;50.862;4.320;2023-05-29T05:38:26;8.27;;;2.50;;
10761;SDS011;5433;50.862;4.320;2023-05-29T05:40:52;9.88;;;2.78;;
10761;SDS011;5433;50.862;4.320;2023-05-29T05:43:18;9.15;;;2.45;;
10761;SDS011;5433;50.862;4.320;2023-05-29T05:45:44;11.43;;;2.60;;
10761;SDS011;5433;50.862;4.320;2023-05-29T05:48:11;9.93;;;2.88;;
10761;SDS011;5433;50.862;4.320;2023-05-29T05:50:37;11.07;;;2.90;;
10761;SDS011;5433;50.862;4.320;2023-05-29T05:53:03;9.55;;;2.83;;
10761;SDS011;5433;50.862;4.320;2023-05-29T05:55:29;11.55;;;2.90;;
10761;SDS011;5433;50.862;4.320;2023-05-29T05:57:55;7.30;;;2.22;;
10761;SDS011;5433;50.862;4.320;2023-05-29T06:00:24;8.05;;;2.67;;
10761;SDS011;5433;50.862;4.320;2023-05-29T06:02:50;8.48;;;2.72;;
10761;SDS011;5433;50.862;4.320;2023-05-29T06:05:20;10.45;;;2.45;;
10761;SDS011;5433;50.862;4.320;2023-05-29T06:07:46;12.18;;;2.90;;
10761;SDS011;5433;50.862;4.320;2023-05-29T06:10:12;10.10;;;2.50;;
10761;SDS011;5433;50.862;4.320;2023-05-29T06:12:38;8.40;;;2.60;;
10761;SDS011;5433;50.862;4.320;2023-05-29T06:15:04;9.40;;;2.63;;
10761;SDS011;5433;50.862;4.320;2023-05-29T06:17:32;8.65;;;2.65;;
10761;SDS011;5433;50.862;4.320;2023-05-29T06:19:58;11.00;;;2.88;;
10761;SDS011;5433;50.862;4.320;2023-05-29T06:22:25;8.27;;;2.80;;
10761;SDS011;5433;50.862;4.320;2023-05-29T06:24:51;8.77;;;2.30;;
10761;SDS011;5433;50.862;4.320;2023-05-29T06:27:17;8.55;;;2.58;;
10761;SDS011;5433;50.862;4.320;2023-05-29T06:29:44;14.07;;;3.03;;
10761;SDS011;5433;50.862;4.320;2023-05-29T06:32:10;9.15;;;2.25;;
10761;SDS011;5433;50.862;4.320;2023-05-29T06:34:36;7.28;;;2.47;;
10761;SDS011;5433;50.862;4.320;2023-05-29T06:37:02;9.35;;;2.60;;
10761;SDS011;5433;50.862;4.320;2023-05-29T06:39:28;9.02;;;2.25;;
10761;SDS011;5433;50.862;4.320;2023-05-29T06:41:54;10.00;;;2.70;;
10761;SDS011;5433;50.862;4.320;2023-05-29T06:44:20;8.40;;;2.30;;
10761;SDS011;5433;50.862;4.320;2023-05-29T06:46:46;9.65;;;2.33;;
10761;SDS011;5433;50.862;4.320;2023-05-29T06:49:12;6.30;;;1.85;;
10761;SDS011;5433;50.862;4.320;2023-05-29T06:51:38;7.55;;;2.30;;
10761;SDS011;5433;50.862;4.320;2023-05-29T06:54:05;9.30;;;2.78;;
10761;SDS011;5433;50.862;4.320;2023-05-29T06:56:31;9.55;;;2.85;;
10761;SDS011;5433;50.862;4.320;2023-05-29T06:58:57;8.82;;;2.85;;
10761;SDS011;5433;50.862;4.320;2023-05-29T07:01:23;8.85;;;2.45;;
10761;SDS011;5433;50.862;4.320;2023-05-29T07:03:52;12.68;;;3.00;;
10761;SDS011;5433;50.862;4.320;2023-05-29T07:06:19;6.30;;;2.33;;
10761;SDS011;5433;50.862;4.320;2023-05-29T07:08:45;9.25;;;2.65;;
10761;SDS011;5433;50.862;4.320;2023-05-29T07:11:11;9.65;;;2.45;;
10761;SDS011;5433;50.862;4.320;2023-05-29T07:13:44;6.32;;;2.38;;
10761;SDS011;5433;50.862;4.320;2023-05-29T07:16:11;7.68;;;2.20;;
10761;SDS011;5433;50.862;4.320;2023-05-29T07:18:37;5.32;;;1.95;;
10761;SDS011;5433;50.862;4.320;2023-05-29T07:21:03;9.00;;;2.40;;
10761;SDS011;5433;50.862;4.320;2023-05-29T07:23:29;7.80;;;2.25;;
10761;SDS011;5433;50.862;4.320;2023-05-29T07:25:55;8.65;;;2.45;;
10761;SDS011;5433;50.862;4.320;2023-05-29T07:28:21;8.73;;;2.38;;
10761;SDS011;5433;50.862;4.320;2023-05-29T07:30:47;8.85;;;2.17;;
10761;SDS011;5433;50.862;4.320;2023-05-29T07:33:13;6.25;;;2.90;;
10761;SDS011;5433;50.862;4.320;2023-05-29T07:35:40;8.02;;;2.40;;
10761;SDS011;5433;50.862;4.320;2023-05-29T07:38:06;8.85;;;1.77;;
10761;SDS011;5433;50.862;4.320;2023-05-29T07:40:32;9.13;;;2.70;;
10761;SDS011;5433;50.862;4.320;2023-05-29T07:42:58;7.32;;;2.20;;
10761;SDS011;5433;50.862;4.320;2023-05-29T07:45:24;6.55;;;2.20;;
10761;SDS011;5433;50.862;4.320;2023-05-29T07:47:50;12.10;;;2.78;;
10761;SDS011;5433;50.862;4.320;2023-05-29T07:50:16;6.30;;;1.92;;
10761;SDS011;5433;50.862;4.320;2023-05-29T07:52:42;6.63;;;2.30;;
10761;SDS011;5433;50.862;4.320;2023-05-29T07:55:11;7.75;;;2.38;;
10761;SDS011;5433;50.862;4.320;2023-05-29T07:57:37;8.90;;;2.58;;
10761;SDS011;5433;50.862;4.320;2023-05-29T08:00:04;9.48;;;2.83;;
10761;SDS011;5433;50.862;4.320;2023-05-29T08:02:30;10.75;;;2.45;;
10761;SDS011;5433;50.862;4.320;2023-05-29T08:04:56;9.25;;;2.30;;
10761;SDS011;5433;50.862;4.320;2023-05-29T08:07:22;5.15;;;2.13;;
10761;SDS011;5433;50.862;4.320;2023-05-29T08:09:48;8.85;;;2.30;;
10761;SDS011;5433;50.862;4.320;2023-05-29T08:12:14;6.32;;;2.20;;
10761;SDS011;5433;50.862;4.320;2023-05-29T08:14:40;12.30;;;2.47;;
10761;SDS011;5433;50.862;4.320;2023-05-29T08:17:07;7.78;;;2.92;;
10761;SDS011;5433;50.862;4.320;2023-05-29T08:19:33;7.35;;;2.38;;
10761;SDS011;5433;50.862;4.320;2023-05-29T08:22:00;9.23;;;2.70;;
10761;SDS011;5433;50.862;4.320;2023-05-29T08:24:26;7.50;;;2.53;;
10761;SDS011;5433;50.862;4.320;2023-05-29T08:26:52;8.45;;;2.72;;
10761;SDS011;5433;50.862;4.320;2023-05-29T08:29:18;6.90;;;2.60;;
10761;SDS011;5433;50.862;4.320;2023-05-29T08:31:45;11.15;;;2.63;;
10761;SDS011;5433;50.862;4.320;2023-05-29T08:34:11;6.20;;;1.88;;
10761;SDS011;5433;50.862;4.320;2023-05-29T08:36:37;8.52;;;2.42;;
10761;SDS011;5433;50.862;4.320;2023-05-29T08:39:06;9.68;;;2.70;;
10761;SDS011;5433;50.862;4.320;2023-05-29T08:44:11;9.20;;;2.88;;
10761;SDS011;5433;50.862;4.320;2023-05-29T08:46:39;6.63;;;2.72;;
10761;SDS011;5433;50.862;4.320;2023-05-29T08:49:05;8.82;;;2.47;;
10761;SDS011;5433;50.862;4.320;2023-05-29T08:51:32;11.23;;;2.55;;
10761;SDS011;5433;50.862;4.320;2023-05-29T08:54:01;5.22;;;2.40;;
10761;SDS011;5433;50.862;4.320;2023-05-29T08:56:30;5.45;;;2.40;;
10761;SDS011;5433;50.862;4.320;2023-05-29T08:58:56;9.63;;;2.85;;
10761;SDS011;5433;50.862;4.320;2023-05-29T09:01:23;6.00;;;2.47;;
10761;SDS011;5433;50.862;4.320;2023-05-29T09:03:50;7.65;;;2.45;;
10761;SDS011;5433;50.862;4.320;2023-05-29T09:06:16;7.15;;;1.95;;
10761;SDS011;5433;50.862;4.320;2023-05-29T09:08:43;6.50;;;2.30;;
10761;SDS011;5433;50.862;4.320;2023-05-29T09:11:09;7.63;;;2.47;;
10761;SDS011;5433;50.862;4.320;2023-05-29T09:13:35;7.22;;;2.60;;
10761;SDS011;5433;50.862;4.320;2023-05-29T09:16:01;7.13;;;2.30;;
10761;SDS011;5433;50.862;4.320;2023-05-29T09:18:29;3.63;;;2.00;;
10761;SDS011;5433;50.862;4.320;2023-05-29T09:20:56;9.43;;;2.95;;
10761;SDS011;5433;50.862;4.320;2023-05-29T09:23:22;7.38;;;2.60;;
10761;SDS011;5433;50.862;4.320;2023-05-29T09:25:51;7.65;;;2.70;;
10761;SDS011;5433;50.862;4.320;2023-05-29T09:28:18;9.10;;;2.50;;
10761;SDS011;5433;50.862;4.320;2023-05-29T09:30:47;6.88;;;2.65;;
10761;SDS011;5433;50.862;4.320;2023-05-29T09:33:14;9.10;;;3.10;;
10761;SDS011;5433;50.862;4.320;2023-05-29T09:38:07;8.73;;;2.80;;
10761;SDS011;5433;50.862;4.320;2023-05-29T09:40:34;7.13;;;2.40;;
10761;SDS011;5433;50.862;4.320;2023-05-29T09:43:05;6.30;;;2.72;;
10761;SDS011;5433;50.862;4.320;2023-05-29T09:45:32;11.35;;;2.50;;
10761;SDS011;5433;50.862;4.320;2023-05-29T09:47:58;10.45;;;2.60;;
10761;SDS011;5433;50.862;4.320;2023-05-29T09:50:27;11.20;;;2.92;;
10761;SDS011;5433;50.862;4.320;2023-05-29T09:52:56;5.72;;;2.33;;
10761;SDS011;5433;50.862;4.320;2023-05-29T09:55:25;7.60;;;2.40;;
10761;SDS011;5433;50.862;4.320;2023-05-29T09:57:53;7.78;;;2.03;;
10761;SDS011;5433;50.862;4.320;2023-05-29T10:00:20;7.72;;;2.53;;
10761;SDS011;5433;50.862;4.320;2023-05-29T10:02:47;9.30;;;2.70;;
10761;SDS011;5433;50.862;4.320;2023-05-29T10:05:13;7.28;;;2.30;;
10761;SDS011;5433;50.862;4.320;2023-05-29T10:07:43;7.72;;;2.70;;
10761;SDS011;5433;50.862;4.320;2023-05-29T10:10:12;9.57;;;2.65;;
10761;SDS011;5433;50.862;4.320;2023-05-29T10:12:38;8.15;;;2.60;;
10761;SDS011;5433;50.862;4.320;2023-05-29T10:15:06;7.30;;;2.05;;
10761;SDS011;5433;50.862;4.320;2023-05-29T10:17:33;9.85;;;2.90;;
10761;SDS011;5433;50.862;4.320;2023-05-29T10:20:01;5.75;;;2.30;;
10761;SDS011;5433;50.862;4.320;2023-05-29T10:22:27;7.15;;;2.30;;
10761;SDS011;5433;50.862;4.320;2023-05-29T10:24:54;8.32;;;2.60;;
10761;SDS011;5433;50.862;4.320;2023-05-29T10:27:22;5.32;;;2.25;;
10761;SDS011;5433;50.862;4.320;2023-05-29T10:32:59;5.82;;;2.58;;
10761;SDS011;5433;50.862;4.320;2023-05-29T10:38:14;9.00;;;2.50;;
10761;SDS011;5433;50.862;4.320;2023-05-29T10:40:42;10.13;;;2.45;;
10761;SDS011;5433;50.862;4.320;2023-05-29T10:43:08;8.32;;;2.28;;
10761;SDS011;5433;50.862;4.320;2023-05-29T10:50:41;7.80;;;2.47;;
10761;SDS011;5433;50.862;4.320;2023-05-29T10:53:08;6.68;;;2.28;;
10761;SDS011;5433;50.862;4.320;2023-05-29T10:55:38;7.20;;;2.30;;
10761;SDS011;5433;50.862;4.320;2023-05-29T10:58:07;4.50;;;2.00;;
10761;SDS011;5433;50.862;4.320;2023-05-29T11:00:34;7.18;;;2.35;;
10761;SDS011;5433;50.862;4.320;2023-05-29T11:03:08;8.07;;;2.70;;
10761;SDS011;5433;50.862;4.320;2023-05-29T11:05:35;5.97;;;2.08;;
10761;SDS011;5433;50.862;4.320;2023-05-29T11:08:28;8.27;;;2.42;;
10761;SDS011;5433;50.862;4.320;2023-05-29T11:10:55;8.00;;;2.40;;
10761;SDS011;5433;50.862;4.320;2023-05-29T11:13:23;4.53;;;1.83;;
10761;SDS011;5433;50.862;4.320;2023-05-29T11:16:03;14.23;;;2.60;;
10761;SDS011;5433;50.862;4.320;2023-05-29T11:18:30;5.03;;;1.98;;
10761;SDS011;5433;50.862;4.320;2023-05-29T11:20:57;7.75;;;2.33;;
10761;SDS011;5433;50.862;4.320;2023-05-29T11:23:23;10.18;;;2.50;;
10761;SDS011;5433;50.862;4.320;2023-05-29T11:25:50;9.48;;;2.95;;
10761;SDS011;5433;50.862;4.320;2023-05-29T11:28:16;6.63;;;2.10;;
10761;SDS011;5433;50.862;4.320;2023-05-29T11:30:46;8.30;;;2.20;;
10761;SDS011;5433;50.862;4.320;2023-05-29T11:33:33;8.27;;;2.28;;
10761;SDS011;5433;50.862;4.320;2023-05-29T11:35:59;6.38;;;2.55;;
10761;SDS011;5433;50.862;4.320;2023-05-29T11:38:28;8.65;;;2.78;;
10761;SDS011;5433;50.862;4.320;2023-05-29T11:40:54;8.48;;;2.65;;
10761;SDS011;5433;50.862;4.320;2023-05-29T11:43:20;7.38;;;2.72;;
10761;SDS011;5433;50.862;4.320;2023-05-29T11:45:47;6.40;;;2.67;;
10761;SDS011;5433;50.862;4.320;2023-05-29T11:48:13;7.72;;;2.40;;
10761;SDS011;5433;50.862;4.320;2023-05-29T11:50:39;6.50;;;2.17;;
10761;SDS011;5433;50.862;4.320;2023-05-29T11:53:05;7.40;;;2.42;;
10761;SDS011;5433;50.862;4.320;2023-05-29T11:55:32;7.55;;;3.13;;
10761;SDS011;5433;50.862;4.320;2023-05-29T11:58:05;10.15;;;3.05;;
10761;SDS011;5433;50.862;4.320;2023-05-29T12:00:32;7.13;;;2.50;;
10761;SDS011;5433;50.862;4.320;2023-05-29T12:02:58;9.00;;;2.70;;
10761;SDS011;5433;50.862;4.320;2023-05-29T12:05:43;7.30;;;2.17;;
10761;SDS011;5433;50.862;4.320;2023-05-29T12:08:10;7.30;;;2.30;;
10761;SDS011;5433;50.862;4.320;2023-05-29T12:10:36;5.32;;;2.20;;
10761;SDS011;5433;50.862;4.320;2023-05-29T12:13:02;5.50;;;2.25;;
10761;SDS011;5433;50.862;4.320;2023-05-29T12:15:28;6.45;;;2.30;;
10761;SDS011;5433;50.862;4.320;2023-05-29T12:17:54;5.75;;;2.65;;
10761;SDS011;5433;50.862;4.320;2023-05-29T12:20:22;9.02;;;2.40;;
10761;SDS011;5433;50.862;4.320;2023-05-29T12:22:51;7.20;;;2.58;;
10761;SDS011;5433;50.862;4.320;2023-05-29T12:25:20;7.40;;;2.13;;
10761;SDS011;5433;50.862;4.320;2023-05-29T12:27:47;7.30;;;2.13;;
10761;SDS011;5433;50.862;4.320;2023-05-29T12:30:14;8.73;;;2.38;;
10761;SDS011;5433;50.862;4.320;2023-05-29T12:32:44;6.68;;;2.17;;
10761;SDS011;5433;50.862;4.320;2023-05-29T12:35:15;6.30;;;2.63;;
10761;SDS011;5433;50.862;4.320;2023-05-29T12:37:42;6.32;;;2.55;;
10761;SDS011;5433;50.862;4.320;2023-05-29T12:40:21;6.28;;;2.60;;
10761;SDS011;5433;50.862;4.320;2023-05-29T12:42:48;6.32;;;2.00;;
10761;SDS011;5433;50.862;4.320;2023-05-29T12:45:15;8.00;;;2.50;;
10761;SDS011;5433;50.862;4.320;2023-05-29T12:47:53;7.85;;;2.58;;
10761;SDS011;5433;50.862;4.320;2023-05-29T12:50:26;5.90;;;1.92;;
10761;SDS011;5433;50.862;4.320;2023-05-29T12:52:53;5.07;;;2.08;;
10761;SDS011;5433;50.862;4.320;2023-05-29T12:55:20;10.40;;;2.60;;
10761;SDS011;5433;50.862;4.320;2023-05-29T12:57:46;5.88;;;2.50;;
10761;SDS011;5433;50.862;4.320;2023-05-29T13:00:12;5.70;;;2.60;;
10761;SDS011;5433;50.862;4.320;2023-05-29T13:02:38;9.00;;;2.80;;
10761;SDS011;5433;50.862;4.320;2023-05-29T13:05:05;6.15;;;2.45;;
10761;SDS011;5433;50.862;4.320;2023-05-29T13:07:32;7.32;;;2.42;;
10761;SDS011;5433;50.862;4.320;2023-05-29T13:09:59;7.07;;;2.22;;
10761;SDS011;5433;50.862;4.320;2023-05-29T13:12:26;9.50;;;2.70;;
10761;SDS011;5433;50.862;4.320;2023-05-29T13:14:53;7.90;;;2.45;;
10761;SDS011;5433;50.862;4.320;2023-05-29T13:17:22;7.45;;;2.45;;
10761;SDS011;5433;50.862;4.320;2023-05-29T13:19:48;8.00;;;2.47;;
10761;SDS011;5433;50.862;4.320;2023-05-29T13:22:14;8.50;;;2.38;;
10761;SDS011;5433;50.862;4.320;2023-05-29T13:24:40;6.55;;;2.40;;
10761;SDS011;5433;50.862;4.320;2023-05-29T13:27:06;4.85;;;2.20;;
10761;SDS011;5433;50.862;4.320;2023-05-29T13:29:32;6.28;;;2.30;;
10761;SDS011;5433;50.862;4.320;2023-05-29T13:31:58;6.15;;;2.67;;
10761;SDS011;5433;50.862;4.320;2023-05-29T13:34:24;7.70;;;2.60;;
10761;SDS011;5433;50.862;4.320;2023-05-29T13:36:54;6.57;;;2.65;;
10761;SDS011;5433;50.862;4.320;2023-05-29T13:39:20;6.40;;;2.70;;
10761;SDS011;5433;50.862;4.320;2023-05-29T13:41:46;8.75;;;2.80;;
10761;SDS011;5433;50.862;4.320;2023-05-29T13:44:12;9.98;;;2.88;;
10761;SDS011;5433;50.862;4.320;2023-05-29T13:46:38;5.13;;;2.30;;
10761;SDS011;5433;50.862;4.320;2023-05-29T13:49:04;7.60;;;2.53;;
10761;SDS011;5433;50.862;4.320;2023-05-29T13:51:32;5.30;;;2.42;;
10761;SDS011;5433;50.862;4.320;2023-05-29T13:53:58;4.85;;;2.58;;
10761;SDS011;5433;50.862;4.320;2023-05-29T13:56:24;5.00;;;2.85;;
10761;SDS011;5433;50.862;4.320;2023-05-29T13:58:51;6.78;;;2.63;;
10761;SDS011;5433;50.862;4.320;2023-05-29T14:01:18;8.32;;;2.75;;
10761;SDS011;5433;50.862;4.320;2023-05-29T14:03:44;8.73;;;2.53;;
10761;SDS011;5433;50.862;4.320;2023-05-29T14:06:10;5.85;;;2.80;;
10761;SDS011;5433;50.862;4.320;2023-05-29T14:08:36;6.95;;;2.47;;
10761;SDS011;5433;50.862;4.320;2023-05-29T14:11:02;8.25;;;2.47;;
10761;SDS011;5433;50.862;4.320;2023-05-29T14:13:28;8.10;;;2.40;;
10761;SDS011;5433;50.862;4.320;2023-05-29T14:15:54;10.60;;;2.50;;
10761;SDS011;5433;50.862;4.320;2023-05-29T14:18:22;7.30;;;2.53;;
10761;SDS011;5433;50.862;4.320;2023-05-29T14:20:48;6.70;;;2.55;;
10761;SDS011;5433;50.862;4.320;2023-05-29T14:23:16;8.13;;;2.35;;
10761;SDS011;5433;50.862;4.320;2023-05-29T14:25:42;7.82;;;2.80;;
10761;SDS011;5433;50.862;4.320;2023-05-29T14:28:08;5.25;;;2.50;;
10761;SDS011;5433;50.862;4.320;2023-05-29T14:30:35;5.40;;;2.30;;
10761;SDS011;5433;50.862;4.320;2023-05-29T14:33:01;6.40;;;2.60;;
10761;SDS011;5433;50.862;4.320;2023-05-29T14:35:27;7.53;;;2.65;;
10761;SDS011;5433;50.862;4.320;2023-05-29T14:37:53;6.75;;;2.45;;
10761;SDS011;5433;50.862;4.320;2023-05-29T14:40:19;5.68;;;2.30;;
10761;SDS011;5433;50.862;4.320;2023-05-29T14:42:45;4.45;;;2.30;;
10761;SDS011;5433;50.862;4.320;2023-05-29T14:45:11;5.28;;;2.40;;
10761;SDS011;5433;50.862;4.320;2023-05-29T14:47:37;8.13;;;2.70;;
10761;SDS011;5433;50.862;4.320;2023-05-29T14:50:03;8.48;;;2.60;;
10761;SDS011;5433;50.862;4.320;2023-05-29T14:52:30;7.15;;;2.42;;
10761;SDS011;5433;50.862;4.320;2023-05-29T14:54:56;6.00;;;2.28;;
10761;SDS011;5433;50.862;4.320;2023-05-29T14:57:22;5.30;;;2.75;;
10761;SDS011;5433;50.862;4.320;2023-05-29T14:59:48;8.82;;;2.20;;
10761;SDS011;5433;50.862;4.320;2023-05-29T15:02:15;4.95;;;2.63;;
10761;SDS011;5433;50.862;4.320;2023-05-29T15:04:41;7.82;;;2.30;;
10761;SDS011;5433;50.862;4.320;2023-05-29T15:07:07;7.70;;;2.65;;
10761;SDS011;5433;50.862;4.320;2023-05-29T15:09:33;6.70;;;2.95;;
10761;SDS011;5433;50.862;4.320;2023-05-29T15:11:59;8.48;;;3.30;;
10761;SDS011;5433;50.862;4.320;2023-05-29T15:14:26;5.00;;;2.50;;
10761;SDS011;5433;50.862;4.320;2023-05-29T15:16:53;7.20;;;2.53;;
10761;SDS011;5433;50.862;4.320;2023-05-29T15:19:20;5.93;;;2.50;;
10761;SDS011;5433;50.862;4.320;2023-05-29T15:21:46;5.10;;;2.20;;
10761;SDS011;5433;50.862;4.320;2023-05-29T15:24:12;5.82;;;2.40;;